In Rescue
 
Open Full Screen Window  High Contrast Mode
Wind Gusting 00 knots
04
January 22, 2020 5:24 PM EST
Weather Information
Wind Direction
  190 °
Wind Speed
  04 kt (5 mph)
Wind Gust
  00 kt (0 mph)
Altimeter
30.28 in
Visibility
10 SM
Temperature
00° C
32° F
Dewpoint
-07° C
19° F
Humidity
60%
Sky Condition
Clear
VFR

METAR KDUH 222224Z AUTO 19004KT 10SM CLR 00/M07 A3028 RMK AO2 T00001070

FAA Disclaimer: The data displayed is for advisory purposes only and is not to be used for flight planning or operations.